Time;durP1;ratioP1;P1;durP2;ratioP2;P2;SDS_P1;SDS_P2;PMS_P1;PMS_P2;Temp;Humidity;BMP_temperature;BMP_pressure;BME280_temperature;BME280_humidity;BME280_pressure;Samples;Min_cycle;Max_cycle;Signal;HPM_P1;HPM_P2
2022/02/03 00:01:30;;;;;;;48.35;28.13;;;;;;;-0.10;100.00;92418.09;5029382;28;20535;-80
2022/02/03 00:04:04;;;;;;;52.33;26.70;;;;;;;-0.17;100.00;92407.88;5029216;28;20499;-80
2022/02/03 00:06:46;;;;;;;57.22;28.90;;;;;;;-0.06;100.00;92434.47;5029142;28;20037;-79
2022/02/03 00:23:32;;;;;;;41.20;20.95;;;;;;;-0.77;100.00;92407.41;5033156;28;20107;-80
2022/02/03 00:26:03;;;;;;;30.88;16.45;;;;;;;-0.74;100.00;92410.38;5033343;28;20045;-80
2022/02/03 00:28:34;;;;;;;29.52;16.88;;;;;;;-0.72;100.00;92421.13;5033224;28;20091;-80
2022/02/03 00:31:09;;;;;;;21.20;12.63;;;;;;;-0.87;100.00;92421.00;5032902;28;20053;-80
2022/02/03 00:33:47;;;;;;;24.45;13.38;;;;;;;-0.81;100.00;92412.78;5033223;28;20088;-80
2022/02/03 00:36:20;;;;;;;14.80;9.07;;;;;;;-0.90;100.00;92423.81;5032809;28;20045;-80
2022/02/03 00:50:01;;;;;;;16.83;12.98;;;;;;;-0.91;100.00;92436.56;5032626;28;20095;-80
2022/02/03 00:52:28;;;;;;;20.05;16.08;;;;;;;-0.93;100.00;92435.94;5032345;28;20049;-81
2022/02/03 00:54:55;;;;;;;17.17;10.18;;;;;;;-1.08;100.00;92416.41;5032724;28;20677;-80
2022/02/03 00:57:30;;;;;;;19.08;12.90;;;;;;;-0.93;100.00;92453.59;5032529;28;20103;-80
2022/02/03 01:00:05;;;;;;;13.75;10.20;;;;;;;-0.93;100.00;92456.88;5032336;28;20046;-80
2022/02/03 01:02:37;;;;;;;12.63;9.15;;;;;;;-0.94;100.00;92455.31;5032346;28;20481;-80
2022/02/03 01:05:04;;;;;;;18.23;12.57;;;;;;;-0.90;100.00;92459.09;5032196;28;20432;-80
2022/02/03 01:07:35;;;;;;;18.35;12.90;;;;;;;-0.88;100.00;92464.00;5032072;28;20481;-80
2022/02/03 01:10:08;;;;;;;21.75;13.45;;;;;;;-0.95;100.00;92466.34;5032212;28;20486;-81
2022/02/03 01:12:43;;;;;;;16.98;9.68;;;;;;;-0.96;100.00;92457.22;5032445;28;20053;-80
2022/02/03 01:15:22;;;;;;;14.23;9.15;;;;;;;-0.99;100.00;92465.09;5031998;28;20045;-80
2022/02/03 01:18:04;;;;;;;15.57;10.70;;;;;;;-0.99;100.00;92447.44;5032285;28;20045;-81
2022/02/03 01:20:56;;;;;;;14.68;9.38;;;;;;;-1.09;100.00;92455.16;5031151;28;20065;-81
2022/02/03 01:34:41;;;;;;;11.82;7.60;;;;;;;-0.99;100.00;92458.31;5031883;28;20052;-81
2022/02/03 01:37:34;;;;;;;10.63;7.82;;;;;;;-1.29;100.00;92419.41;5031763;28;20084;-81
2022/02/03 01:45:52;;;;;;;9.20;6.78;;;;;;;-0.98;100.00;92444.78;5030588;28;20096;-80
2022/02/03 01:48:34;;;;;;;12.48;7.10;;;;;;;-1.13;100.00;92442.09;5031514;28;20045;-80
2022/02/03 01:53:49;;;;;;;13.27;7.20;;;;;;;-1.01;100.00;92462.75;5031338;28;20060;-80
2022/02/03 01:56:18;;;;;;;10.75;8.05;;;;;;;-1.06;100.00;92459.91;5031320;28;20141;-80
2022/02/03 01:58:50;;;;;;;9.60;7.65;;;;;;;-0.93;100.00;92461.94;5031297;28;20072;-80
2022/02/03 02:01:24;;;;;;;10.82;7.50;;;;;;;-0.93;100.00;92464.47;5031550;28;20045;-80
2022/02/03 02:03:57;;;;;;;9.73;7.47;;;;;;;-1.01;100.00;92469.50;5031398;28;20049;-80
2022/02/03 02:06:43;;;;;;;10.90;7.95;;;;;;;-1.02;100.00;92475.50;5031120;28;20042;-80
2022/02/03 02:09:22;;;;;;;12.45;8.38;;;;;;;-1.06;100.00;92477.56;5031065;28;20048;-80
2022/02/03 02:12:02;;;;;;;11.82;8.05;;;;;;;-1.13;100.00;92464.78;5031217;28;20100;-80
2022/02/03 02:40:08;;;;;;;12.85;7.85;;;;;;;-1.03;100.00;92499.13;5030183;28;20430;-80
2022/02/03 02:42:40;;;;;;;10.88;7.85;;;;;;;-1.19;100.00;92488.09;5019074;28;20047;-81
2022/02/03 02:45:10;;;;;;;10.00;7.30;;;;;;;-1.01;100.00;92509.84;5030585;28;20103;-80
2022/02/03 02:47:50;;;;;;;10.30;7.18;;;;;;;-0.98;100.00;92504.47;5030614;28;20037;-80
2022/02/03 02:50:23;;;;;;;11.02;6.95;;;;;;;-0.94;100.00;92508.25;5030675;28;20045;-81
2022/02/03 02:52:59;;;;;;;13.15;8.68;;;;;;;-0.94;100.00;92510.78;5029800;28;20116;-81
2022/02/03 02:55:48;;;;;;;11.20;7.93;;;;;;;-0.99;100.00;92505.44;5030253;28;20164;-81
2022/02/03 03:04:21;;;;;;;9.87;7.20;;;;;;;-0.89;100.00;92522.94;5030186;28;20075;-81
2022/02/03 03:32:08;;;;;;;13.18;6.22;;;;;;;-0.93;100.00;92554.44;5026010;28;20046;-80
2022/02/03 03:34:57;;;;;;;11.65;8.38;;;;;;;-0.92;100.00;92574.47;5029864;28;20046;-80
2022/02/03 03:37:31;;;;;;;8.70;7.40;;;;;;;-0.92;100.00;92566.91;5029460;28;20493;-80
2022/02/03 03:40:05;;;;;;;9.70;7.03;;;;;;;-1.11;100.00;92541.00;5029992;28;20144;-79
2022/02/03 03:42:33;;;;;;;9.57;7.63;;;;;;;-0.88;100.00;92565.63;5029694;28;20037;-79
2022/02/03 03:45:02;;;;;;;11.75;8.02;;;;;;;-0.83;100.00;92570.22;5029734;28;20451;-80
2022/02/03 03:47:34;;;;;;;15.77;7.25;;;;;;;-0.85;100.00;92577.94;5029744;28;20067;-80
2022/02/03 03:50:09;;;;;;;10.43;7.00;;;;;;;-0.88;100.00;92587.56;5029952;28;20091;-80
2022/02/03 03:52:45;;;;;;;9.02;6.05;;;;;;;-0.92;100.00;92582.03;5029320;28;20085;-80
2022/02/03 03:55:21;;;;;;;10.07;7.00;;;;;;;-1.15;100.00;92556.63;5029581;28;20044;-80
2022/02/03 03:58:05;;;;;;;10.60;6.85;;;;;;;-0.89;100.00;92588.50;5029474;28;20427;-80
2022/02/03 04:00:53;;;;;;;11.03;6.77;;;;;;;-0.95;100.00;92593.22;5029608;28;20045;-81
2022/02/03 04:35:42;;;;;;;13.15;7.45;;;;;;;-1.08;100.00;92625.63;5011393;28;20051;-79
2022/02/03 04:41:17;;;;;;;8.63;6.22;;;;;;;-0.97;100.00;92642.97;5029253;28;20060;-79
2022/02/03 04:56:58;;;;;;;9.03;6.57;;;;;;;-1.23;100.00;92626.22;5103623;27;1312486;-79
2022/02/03 05:02:50;;;;;;;9.30;6.95;;;;;;;-1.01;100.00;92671.19;5092711;28;20085;-78
2022/02/03 05:05:43;;;;;;;7.55;6.43;;;;;;;-1.28;100.00;92648.56;5127894;28;20051;-81
2022/02/03 05:08:33;;;;;;;8.13;6.03;;;;;;;-1.08;100.00;92684.41;5127574;28;20459;-81
2022/02/03 05:11:30;;;;;;;9.60;6.88;;;;;;;-1.11;100.00;92688.94;5127846;28;20043;-80
2022/02/03 05:17:17;;;;;;;14.13;9.05;;;;;;;-0.99;100.00;92717.19;5123586;28;20547;-80
2022/02/03 05:26:12;;;;;;;10.73;7.65;;;;;;;-1.06;100.00;92732.16;5090392;28;20048;-78
2022/02/03 05:44:13;;;;;;;11.05;7.28;;;;;;;-1.11;100.00;92777.19;5023617;28;20101;-78
2022/02/03 05:46:57;;;;;;;9.68;6.85;;;;;;;-1.11;100.00;92772.13;5101465;28;20036;-78
2022/02/03 05:49:57;;;;;;;7.65;5.78;;;;;;;-1.10;100.00;92778.75;5106324;28;20046;-78
2022/02/03 06:01:20;;;;;;;12.98;8.15;;;;;;;-1.28;100.00;92788.88;5106125;28;20093;-78
2022/02/03 06:06:52;;;;;;;14.15;9.15;;;;;;;-1.13;100.00;92816.84;5098655;28;20047;-78
2022/02/03 06:09:34;;;;;;;21.48;11.23;;;;;;;-1.14;100.00;92826.16;5092576;28;20040;-78
2022/02/03 06:12:25;;;;;;;22.58;12.40;;;;;;;-1.10;100.00;92824.13;5092481;28;20394;-78
2022/02/03 06:15:01;;;;;;;16.88;10.55;;;;;;;-1.10;100.00;92836.72;5092091;28;20487;-78
2022/02/03 06:17:36;;;;;;;8.93;7.38;;;;;;;-1.03;100.00;92836.94;5092250;28;20047;-78
2022/02/03 06:22:54;;;;;;;36.60;17.48;;;;;;;-1.04;100.00;92845.41;5090388;28;20584;-78
2022/02/03 06:28:05;;;;;;;93.03;42.67;;;;;;;-1.09;100.00;92851.72;5092061;28;20189;-78
2022/02/03 06:30:32;;;;;;;15.60;9.52;;;;;;;-1.08;100.00;92853.28;5092185;28;20285;-78
2022/02/03 06:32:59;;;;;;;15.75;10.00;;;;;;;-1.14;100.00;92838.75;5091862;28;20048;-78
2022/02/03 06:35:27;;;;;;;11.95;7.75;;;;;;;-1.09;100.00;92863.50;5091560;28;20048;-78
2022/02/03 06:37:54;;;;;;;92.95;37.95;;;;;;;-1.14;100.00;92870.72;5092015;28;20048;-78
2022/02/03 06:40:21;;;;;;;79.15;34.10;;;;;;;-1.11;100.00;92875.47;5091665;28;20077;-78
2022/02/03 06:42:53;;;;;;;18.80;10.00;;;;;;;-1.10;100.00;92879.56;5091508;28;20040;-78
2022/02/03 06:45:31;;;;;;;73.57;30.33;;;;;;;-1.02;100.00;92883.88;5091487;28;20127;-78
2022/02/03 06:48:02;;;;;;;36.58;16.25;;;;;;;-1.10;100.00;92882.88;5091823;28;20083;-78
2022/02/03 06:50:37;;;;;;;174.18;64.38;;;;;;;-1.06;100.00;92880.88;5091483;28;20044;-78
2022/02/03 06:53:09;;;;;;;31.50;14.90;;;;;;;-1.02;100.00;92881.38;5091415;28;20127;-78
2022/02/03 06:55:43;;;;;;;95.00;34.97;;;;;;;-1.03;100.00;92885.59;5091482;28;20402;-78
2022/02/03 06:58:15;;;;;;;162.88;60.40;;;;;;;-1.02;100.00;92896.50;5091498;28;20036;-78
2022/02/03 07:00:50;;;;;;;119.50;44.85;;;;;;;-0.95;100.00;92884.88;5091157;28;20073;-78
2022/02/03 07:03:21;;;;;;;61.40;27.37;;;;;;;-0.85;100.00;92887.28;5088610;28;20048;-78
2022/02/03 07:05:49;;;;;;;37.60;17.52;;;;;;;-0.72;100.00;92900.31;5089474;28;20126;-78
2022/02/03 07:08:18;;;;;;;21.30;10.98;;;;;;;-0.97;100.00;92867.38;5091045;28;20048;-78
2022/02/03 07:10:46;;;;;;;14.80;8.43;;;;;;;-0.67;100.00;92899.88;5091294;28;20067;-78
2022/02/03 07:13:14;;;;;;;44.28;20.58;;;;;;;-0.63;100.00;92905.41;5091330;28;20458;-77
2022/02/03 07:15:41;;;;;;;220.65;84.82;;;;;;;-0.62;100.00;92900.22;5091125;28;20047;-78
2022/02/03 07:18:08;;;;;;;20.17;11.20;;;;;;;-0.50;100.00;92913.38;5089966;28;20040;-77
2022/02/03 07:20:35;;;;;;;41.63;18.35;;;;;;;-0.43;100.00;92921.94;5091047;28;20044;-78
2022/02/03 07:23:06;;;;;;;25.50;13.18;;;;;;;-0.48;100.00;92919.06;5090853;28;20498;-77
2022/02/03 07:25:33;;;;;;;57.95;22.92;;;;;;;-0.35;100.00;92921.19;5090688;28;20040;-77
2022/02/03 07:28:01;;;;;;;23.48;11.73;;;;;;;-0.24;100.00;92924.38;5090905;28;20051;-78
2022/02/03 07:30:27;;;;;;;36.22;15.43;;;;;;;-0.31;100.00;92935.09;5090783;28;20047;-77
2022/02/03 07:32:56;;;;;;;22.52;11.60;;;;;;;-0.35;100.00;92931.28;5090596;28;20036;-77
2022/02/03 07:35:24;;;;;;;67.03;24.38;;;;;;;-0.53;100.00;92923.75;5090438;28;20055;-78
2022/02/03 07:37:52;;;;;;;11.88;7.18;;;;;;;-0.90;100.00;92884.41;5090996;28;20044;-77
2022/02/03 07:40:20;;;;;;;15.00;8.40;;;;;;;-0.60;100.00;92943.72;5090609;28;20068;-77
2022/02/03 07:42:49;;;;;;;12.10;9.75;;;;;;;-0.61;100.00;92946.44;5090589;28;20048;-78
2022/02/03 07:45:18;;;;;;;29.20;17.33;;;;;;;-0.64;100.00;92961.84;5090745;28;20040;-78
2022/02/03 07:47:45;;;;;;;23.58;14.35;;;;;;;-0.71;100.00;92947.31;5090704;28;20050;-78
2022/02/03 07:50:12;;;;;;;17.13;10.10;;;;;;;-0.58;100.00;92964.56;5090471;28;20040;-78
2022/02/03 07:52:39;;;;;;;18.13;10.13;;;;;;;-0.65;100.00;92971.13;5090162;28;20036;-78
2022/02/03 07:55:07;;;;;;;9.98;6.55;;;;;;;-0.73;100.00;92976.13;5090105;28;20094;-78
2022/02/03 07:57:36;;;;;;;22.77;11.88;;;;;;;-0.64;100.00;92974.47;5090595;28;20117;-77
2022/02/03 08:00:03;;;;;;;26.20;12.65;;;;;;;-0.47;100.00;92983.72;5090364;28;20048;-77
2022/02/03 08:02:31;;;;;;;16.90;9.05;;;;;;;-0.36;100.00;92985.22;5089912;28;20062;-77
2022/02/03 08:05:01;;;;;;;18.90;10.52;;;;;;;-0.37;100.00;92990.41;5090297;28;20437;-77
2022/02/03 08:07:28;;;;;;;32.72;16.08;;;;;;;-0.25;100.00;92991.75;5090087;28;20123;-77
2022/02/03 08:09:59;;;;;;;12.55;8.52;;;;;;;-0.32;100.00;92991.53;5089905;28;20040;-77
2022/02/03 08:12:30;;;;;;;15.77;10.95;;;;;;;-0.37;100.00;92996.22;5089941;28;20040;-77
2022/02/03 08:14:59;;;;;;;11.68;7.43;;;;;;;-0.34;100.00;93005.25;5089755;28;20130;-77
2022/02/03 08:17:35;;;;;;;16.42;9.20;;;;;;;-0.25;100.00;93014.47;5089672;28;20044;-77
2022/02/03 08:20:05;;;;;;;10.07;7.43;;;;;;;-0.18;100.00;93015.44;5089942;28;20425;-77
2022/02/03 08:22:36;;;;;;;15.25;9.18;;;;;;;-0.23;100.00;93015.09;5089715;28;20035;-77
2022/02/03 08:25:09;;;;;;;10.98;7.13;;;;;;;-0.29;100.00;93026.59;5089968;28;20055;-77
2022/02/03 08:27:54;;;;;;;7.65;5.78;;;;;;;-0.25;100.00;93019.50;5090015;28;20040;-77
2022/02/03 08:30:30;;;;;;;14.82;7.80;;;;;;;-0.14;100.00;93023.50;5089521;28;20441;-77
2022/02/03 08:33:01;;;;;;;48.20;30.20;;;;;;;-0.12;100.00;93023.38;5089838;28;20044;-77
2022/02/03 08:35:40;;;;;;;13.25;8.30;;;;;;;-0.27;100.00;93001.97;5089300;28;20058;-77
2022/02/03 08:38:18;;;;;;;16.42;9.93;;;;;;;0.25;100.00;93032.41;5089319;28;20050;-77
2022/02/03 08:40:57;;;;;;;14.60;9.70;;;;;;;0.36;100.00;93034.66;5089686;28;20384;-77
2022/02/03 08:43:24;;;;;;;10.88;7.97;;;;;;;0.23;100.00;93045.19;5089382;28;20044;-77
2022/02/03 08:45:53;;;;;;;12.32;7.47;;;;;;;0.25;100.00;93060.19;5089448;28;20457;-77
2022/02/03 08:48:20;;;;;;;8.95;6.72;;;;;;;0.09;100.00;93049.06;5089253;28;20040;-77
2022/02/03 08:50:47;;;;;;;11.40;7.80;;;;;;;0.24;100.00;93061.91;5089474;28;20048;-77
2022/02/03 08:53:18;;;;;;;11.27;7.90;;;;;;;0.11;100.00;93049.72;5089543;28;20457;-77
2022/02/03 08:55:54;;;;;;;14.00;7.95;;;;;;;0.09;100.00;93069.25;5089529;28;20085;-77
2022/02/03 09:37:06;;;;;;;10.52;5.65;;;;;;;0.01;100.00;93107.09;5089013;28;20509;-77
2022/02/03 09:59:11;;;;;;;7.43;5.85;;;;;;;0.52;100.00;93108.97;5086325;28;20482;-78
2022/02/03 10:01:43;;;;;;;9.68;6.13;;;;;;;0.72;100.00;93107.00;5087068;28;20048;-78
2022/02/03 10:04:14;;;;;;;5.72;4.68;;;;;;;0.85;100.00;93115.91;5086599;28;20050;-78
2022/02/03 10:06:53;;;;;;;7.93;6.05;;;;;;;0.81;100.00;93120.47;5087058;28;20129;-78
2022/02/03 10:09:38;;;;;;;12.07;6.60;;;;;;;0.71;100.00;93109.69;5086900;28;20044;-78
2022/02/03 10:12:08;;;;;;;8.65;6.55;;;;;;;0.76;100.00;93125.19;5086597;28;20041;-78
2022/02/03 10:14:36;;;;;;;10.70;6.90;;;;;;;0.75;100.00;93108.44;5086329;28;20044;-78
2022/02/03 10:17:04;;;;;;;8.35;5.28;;;;;;;0.62;100.00;93103.81;5086751;28;20040;-78
2022/02/03 10:19:35;;;;;;;14.57;9.07;;;;;;;0.69;100.00;93109.84;5086389;28;20040;-78
2022/02/03 10:22:03;;;;;;;10.88;6.40;;;;;;;0.74;100.00;93107.66;5080259;28;20613;-78
2022/02/03 10:24:35;;;;;;;8.07;4.97;;;;;;;0.64;100.00;93099.38;5074452;28;20045;-78
2022/02/03 10:27:02;;;;;;;7.97;5.03;;;;;;;0.61;100.00;93100.47;5075808;28;20051;-77
2022/02/03 10:29:36;;;;;;;8.38;5.25;;;;;;;0.73;100.00;93106.06;5076948;28;20040;-78
2022/02/03 10:32:08;;;;;;;6.13;4.68;;;;;;;0.69;100.00;93109.84;5063190;28;20083;-78
2022/02/03 10:34:42;;;;;;;6.72;4.78;;;;;;;0.70;100.00;93105.59;5066207;28;20048;-78
2022/02/03 10:37:14;;;;;;;6.82;4.88;;;;;;;0.66;100.00;93095.75;5075256;28;20429;-78
2022/02/03 10:43:03;;;;;;;6.82;4.88;;;;;;;1.08;100.00;93108.56;5076629;28;20056;-78
2022/02/03 10:51:32;;;;;;;5.57;3.60;;;;;;;1.03;100.00;93113.28;5064662;28;20082;-78
2022/02/03 10:57:29;;;;;;;5.53;3.55;;;;;;;1.29;100.00;93087.88;5070545;27;20040;-78
2022/02/03 11:00:11;;;;;;;6.45;4.35;;;;;;;1.44;100.00;93108.31;5075863;28;20391;-78
2022/02/03 11:03:02;;;;;;;5.85;4.55;;;;;;;1.63;100.00;93101.38;5079482;28;20387;-78
2022/02/03 11:08:18;;;;;;;5.60;4.10;;;;;;;1.78;100.00;93110.88;5072125;28;20137;-78
2022/02/03 11:10:51;;;;;;;6.32;4.45;;;;;;;1.82;100.00;93092.69;5065522;28;20040;-78
2022/02/03 11:13:20;;;;;;;6.07;4.05;;;;;;;1.66;100.00;93078.25;5064630;28;20052;-78
2022/02/03 11:15:51;;;;;;;7.55;4.85;;;;;;;1.63;100.00;93111.50;5071639;28;20064;-78
2022/02/03 11:18:20;;;;;;;6.57;4.65;;;;;;;1.66;100.00;93102.81;5052234;28;20056;-78
2022/02/03 11:20:47;;;;;;;6.00;3.78;;;;;;;1.83;100.00;93111.19;5051177;28;20049;-78
2022/02/03 11:23:30;;;;;;;7.95;5.43;;;;;;;2.05;100.00;93112.31;5051880;28;20381;-78
2022/02/03 11:26:08;;;;;;;5.05;3.80;;;;;;;1.97;98.60;93112.28;5051398;28;20090;-78
2022/02/03 11:28:59;;;;;;;7.03;4.18;;;;;;;1.97;100.00;93104.69;5054449;28;20503;-78
2022/02/03 11:37:44;;;;;;;10.95;6.22;;;;;;;2.10;99.95;93096.63;5064950;28;20055;-79
2022/02/03 11:46:21;;;;;;;5.25;3.80;;;;;;;1.70;97.93;93094.72;5067145;28;20492;-78
2022/02/03 11:55:15;;;;;;;15.48;9.27;;;;;;;1.95;100.00;93099.78;5047411;28;20071;-78
2022/02/03 12:01:04;;;;;;;7.78;4.50;;;;;;;1.95;98.99;93093.94;5050306;28;20048;-79
2022/02/03 12:03:54;;;;;;;5.28;3.15;;;;;;;1.90;97.84;93103.75;5048760;28;20132;-79
2022/02/03 12:17:59;;;;;;;4.70;3.58;;;;;;;1.59;95.53;93107.72;5044642;28;20053;-79
2022/02/03 12:20:43;;;;;;;4.35;3.28;;;;;;;1.57;97.91;93104.56;5050878;28;20045;-79
2022/02/03 12:23:38;;;;;;;5.05;3.60;;;;;;;1.64;98.27;93107.22;5050734;28;20045;-79
2022/02/03 12:26:14;;;;;;;10.10;6.03;;;;;;;1.82;100.00;93099.47;5050737;28;20040;-79
2022/02/03 12:28:50;;;;;;;6.72;3.85;;;;;;;1.64;98.30;93092.03;5025551;28;20044;-79
2022/02/03 12:37:10;;;;;;;5.17;4.13;;;;;;;1.44;100.00;93094.88;5031326;28;20409;-80
2022/02/03 12:39:46;;;;;;;9.45;6.28;;;;;;;1.50;100.00;93113.69;5030318;28;20282;-80
2022/02/03 12:42:27;;;;;;;10.75;6.72;;;;;;;1.58;100.00;93118.78;5030599;28;20050;-81
2022/02/03 12:45:02;;;;;;;7.97;5.10;;;;;;;1.30;100.00;93101.34;5030324;28;20049;-80
2022/02/03 12:47:31;;;;;;;7.10;5.00;;;;;;;1.25;100.00;93101.78;5030364;28;20069;-80
2022/02/03 12:49:58;;;;;;;8.77;6.38;;;;;;;1.44;100.00;93117.66;5030399;28;20052;-80
2022/02/03 12:52:26;;;;;;;5.50;4.18;;;;;;;1.26;100.00;93117.78;5030565;28;20041;-80
2022/02/03 12:54:53;;;;;;;6.88;5.10;;;;;;;1.30;100.00;93122.38;5030339;28;20072;-80
2022/02/03 12:57:32;;;;;;;7.55;4.75;;;;;;;1.39;99.98;93120.63;5030157;28;20095;-80
2022/02/03 13:00:15;;;;;;;8.93;6.55;;;;;;;1.46;100.00;93128.41;5030573;28;20050;-80
2022/02/03 13:02:51;;;;;;;7.35;4.63;;;;;;;1.32;98.45;93140.72;5029863;28;20500;-80
2022/02/03 13:05:21;;;;;;;6.72;4.82;;;;;;;1.10;98.78;93131.19;5029101;28;20464;-79
2022/02/03 13:07:51;;;;;;;7.22;5.95;;;;;;;1.12;100.00;93130.09;5029757;28;20132;-81
2022/02/03 13:10:22;;;;;;;6.53;5.15;;;;;;;1.13;99.56;93135.91;5030010;28;20046;-80
2022/02/03 13:12:58;;;;;;;9.32;5.45;;;;;;;1.08;99.39;93122.94;5029485;28;20130;-80
2022/02/03 13:15:38;;;;;;;6.22;4.07;;;;;;;1.11;98.80;93146.19;5029292;28;20049;-79
2022/02/03 13:18:10;;;;;;;7.82;4.95;;;;;;;1.16;99.75;93149.06;5029796;28;20121;-80
2022/02/03 13:20:43;;;;;;;6.47;3.92;;;;;;;1.20;98.61;93137.69;5029040;28;20050;-80
2022/02/03 13:23:14;;;;;;;7.97;4.80;;;;;;;1.38;98.82;93158.78;5028302;28;20041;-80
2022/02/03 13:25:55;;;;;;;7.28;4.57;;;;;;;1.24;98.89;93129.81;5029563;28;20053;-80
2022/02/03 13:28:34;;;;;;;4.95;3.92;;;;;;;1.24;96.91;93114.63;5029276;28;20045;-80
2022/02/03 13:31:17;;;;;;;7.63;4.63;;;;;;;1.60;96.31;93163.25;5029316;28;20053;-79
2022/02/03 13:33:51;;;;;;;6.22;3.78;;;;;;;1.44;95.79;93161.47;5029199;28;20041;-79
2022/02/03 13:36:23;;;;;;;12.45;6.88;;;;;;;1.46;95.70;93153.72;5028225;28;20398;-79
2022/02/03 13:39:00;;;;;;;15.23;7.35;;;;;;;1.16;95.20;93135.63;5029137;28;20041;-79
2022/02/03 13:41:29;;;;;;;6.50;4.28;;;;;;;1.17;95.26;93170.09;5029353;28;20050;-78
2022/02/03 13:44:04;;;;;;;5.65;3.42;;;;;;;1.16;95.43;93169.28;5029649;28;20053;-79
2022/02/03 13:46:33;;;;;;;5.55;3.47;;;;;;;1.08;96.44;93171.81;5029297;28;20477;-79
2022/02/03 13:49:00;;;;;;;7.95;3.80;;;;;;;1.11;95.91;93175.78;5029630;28;20053;-79
2022/02/03 13:51:28;;;;;;;6.57;4.40;;;;;;;0.93;98.43;93157.19;5029160;28;20827;-80
2022/02/03 13:54:04;;;;;;;7.10;4.47;;;;;;;1.12;96.10;93187.47;5028861;28;20038;-79
2022/02/03 14:19:40;;;;;;;11.60;6.70;;;;;;;1.07;97.25;93180.34;5029062;28;20104;-79
2022/02/03 14:22:08;;;;;;;7.03;4.22;;;;;;;1.12;96.80;93211.03;5028966;28;20050;-79
2022/02/03 14:27:22;;;;;;;6.75;3.50;;;;;;;0.96;94.00;93231.97;5048953;28;20439;-79
2022/02/03 14:29:52;;;;;;;5.28;3.08;;;;;;;0.62;93.41;93215.84;5049003;28;20123;-80
2022/02/03 14:32:29;;;;;;;7.50;3.83;;;;;;;0.82;95.33;93222.44;5048836;28;20126;-80
2022/02/03 14:34:56;;;;;;;6.97;4.00;;;;;;;0.80;96.17;93204.88;5049149;28;20400;-80
2022/02/03 14:37:29;;;;;;;9.10;4.22;;;;;;;1.04;96.49;93233.75;5048957;28;20044;-80
2022/02/03 14:40:12;;;;;;;6.13;4.18;;;;;;;0.93;96.16;93222.94;5048923;28;20041;-80
2022/02/03 14:42:41;;;;;;;7.53;3.85;;;;;;;0.86;95.23;93236.34;5051623;28;20072;-80
2022/02/03 14:45:12;;;;;;;6.10;3.90;;;;;;;0.88;96.53;93239.53;5052425;28;20087;-80
2022/02/03 14:47:40;;;;;;;7.32;3.90;;;;;;;0.80;97.48;93240.28;5052760;28;20041;-80
2022/02/03 14:50:08;;;;;;;7.93;5.05;;;;;;;0.78;99.35;93232.84;5052339;28;20484;-80
2022/02/03 14:52:54;;;;;;;4.80;3.17;;;;;;;0.87;98.30;93236.19;5052374;28;20045;-80
2022/02/03 14:58:10;;;;;;;6.28;4.18;;;;;;;0.71;99.68;93239.44;5052427;28;20052;-80
2022/02/03 15:00:37;;;;;;;8.35;5.43;;;;;;;0.75;100.00;93243.22;5052091;28;20037;-80
2022/02/03 15:03:05;;;;;;;7.35;4.30;;;;;;;0.47;97.59;93227.41;5052507;28;20033;-79
2022/02/03 15:05:35;;;;;;;6.30;3.65;;;;;;;0.47;96.36;93248.41;5052651;28;20098;-79
2022/02/03 15:08:05;;;;;;;6.18;3.53;;;;;;;0.45;95.62;93282.34;5052513;28;20139;-80
2022/02/03 15:10:45;;;;;;;6.57;4.10;;;;;;;0.26;96.54;93236.91;5052299;28;20047;-80
2022/02/03 15:13:18;;;;;;;6.43;3.78;;;;;;;0.34;96.59;93280.84;5051931;28;20041;-79
2022/02/03 15:15:46;;;;;;;8.90;4.82;;;;;;;0.33;96.78;93274.22;5051883;28;20052;-80
2022/02/03 15:18:17;;;;;;;6.13;3.97;;;;;;;0.23;95.29;93257.41;5052083;28;20076;-80
2022/02/03 15:20:44;;;;;;;4.85;3.35;;;;;;;0.20;94.84;93277.09;5051847;28;20438;-80
2022/02/03 15:23:11;;;;;;;7.70;3.80;;;;;;;0.26;95.81;93281.56;5051409;28;20400;-79
2022/02/03 15:25:37;;;;;;;7.88;4.80;;;;;;;0.23;95.18;93279.34;5051903;28;20049;-80
2022/02/03 15:28:05;;;;;;;7.40;5.13;;;;;;;0.18;95.71;93289.09;5051715;28;20048;-80
2022/02/03 15:30:32;;;;;;;5.68;3.45;;;;;;;0.13;94.37;93289.50;5051547;28;20485;-80
2022/02/03 15:32:58;;;;;;;6.28;3.55;;;;;;;-0.03;94.77;93292.69;5051764;28;20045;-80
2022/02/03 15:35:31;;;;;;;7.43;4.20;;;;;;;-0.33;94.96;93264.28;5051412;28;20045;-79
2022/02/03 15:37:59;;;;;;;5.28;3.85;;;;;;;-0.21;96.81;93280.81;5051919;28;20059;-79
2022/02/03 15:40:28;;;;;;;7.70;4.40;;;;;;;-0.22;95.19;93301.16;5047291;28;20055;-80
2022/02/03 15:43:01;;;;;;;6.05;3.72;;;;;;;-0.16;95.45;93308.97;5049820;28;20052;-81
2022/02/03 15:45:35;;;;;;;8.05;4.70;;;;;;;-0.15;96.39;93308.03;5051858;28;20045;-81
2022/02/03 15:48:09;;;;;;;6.07;3.85;;;;;;;-0.24;96.87;93325.75;5051452;28;20119;-80
2022/02/03 15:56:51;;;;;;;7.60;4.95;;;;;;;-0.16;98.56;93333.41;5051337;28;20052;-81
2022/02/03 16:02:37;;;;;;;6.15;4.22;;;;;;;-0.32;98.48;93349.94;5030861;28;20050;-82
2022/02/03 16:18:43;;;;;;;8.70;5.13;;;;;;;-0.86;99.39;93310.19;5030606;28;20045;-81
2022/02/03 16:21:18;;;;;;;7.93;4.82;;;;;;;-0.87;98.56;93376.69;5030466;28;20042;-82
2022/02/03 16:51:17;;;;;;;11.18;6.65;;;;;;;-0.76;98.68;93443.84;5049937;28;20083;-80
2022/02/03 16:53:44;;;;;;;14.10;7.97;;;;;;;-0.77;99.26;93424.59;5050194;28;20045;-80
2022/02/03 16:56:13;;;;;;;11.88;7.47;;;;;;;-0.60;98.85;93435.72;5049901;28;20493;-81
2022/02/03 16:58:44;;;;;;;20.27;11.32;;;;;;;-0.67;98.36;93444.75;5050662;28;20041;-81
2022/02/03 17:01:10;;;;;;;9.00;5.15;;;;;;;-1.01;99.75;93457.78;5049742;28;20045;-80
2022/02/03 17:03:37;;;;;;;8.60;6.20;;;;;;;-0.96;100.00;93453.16;5049577;28;20098;-80
2022/02/03 17:06:06;;;;;;;9.85;5.82;;;;;;;-0.88;100.00;93448.22;5049633;28;20045;-80
2022/02/03 17:08:34;;;;;;;8.00;6.13;;;;;;;-1.06;100.00;93429.66;5049935;28;20092;-80
2022/02/03 17:11:01;;;;;;;12.98;7.63;;;;;;;-0.91;100.00;93414.91;5049979;28;20137;-81
2022/02/03 17:13:29;;;;;;;9.93;7.00;;;;;;;-0.95;100.00;93440.41;5050477;28;20045;-80
2022/02/03 17:15:56;;;;;;;11.88;7.93;;;;;;;-0.68;100.00;93453.25;5050387;28;20045;-80
2022/02/03 17:18:23;;;;;;;12.98;7.07;;;;;;;-0.82;100.00;93445.16;5049836;28;20045;-80
2022/02/03 17:20:50;;;;;;;10.73;6.38;;;;;;;-0.86;100.00;93459.00;5049323;28;20401;-80
2022/02/03 17:23:20;;;;;;;11.63;8.15;;;;;;;-0.96;100.00;93455.66;5049581;28;20049;-80
2022/02/03 17:25:52;;;;;;;20.55;8.45;;;;;;;-0.87;100.00;93442.28;5049348;28;20052;-79
2022/02/03 17:28:24;;;;;;;12.48;8.00;;;;;;;-0.99;100.00;93460.97;5049482;28;20045;-79
2022/02/03 17:30:57;;;;;;;6.90;5.20;;;;;;;-1.13;100.00;93468.00;5049496;28;20044;-79
2022/02/03 18:04:03;;;;;;;19.58;10.98;;;;;;;-0.99;100.00;93511.41;5049114;28;20100;-80
2022/02/03 18:09:19;;;;;;;22.88;9.75;;;;;;;-1.18;100.00;93499.56;5049236;28;20589;-80
2022/02/03 18:11:59;;;;;;;20.38;9.88;;;;;;;-1.22;100.00;93497.31;5049006;28;20472;-79
2022/02/03 18:17:29;;;;;;;20.77;10.63;;;;;;;-1.51;100.00;93515.69;5051163;28;20134;-79
2022/02/03 18:30:54;;;;;;;22.00;11.82;;;;;;;-1.91;100.00;93517.25;5052575;28;20048;-79
2022/02/03 18:36:31;;;;;;;42.35;14.25;;;;;;;-1.97;100.00;93514.44;5016635;28;20087;-79
2022/02/03 18:50:20;;;;;;;16.65;12.07;;;;;;;-2.35;100.00;93514.91;5051976;28;20048;-81
2022/02/03 18:53:14;;;;;;;18.33;13.27;;;;;;;-2.32;100.00;93519.69;5052350;28;20967;-81
2022/02/03 18:55:54;;;;;;;92.85;60.05;;;;;;;-2.37;100.00;93526.03;5052641;28;20045;-81
2022/02/03 18:58:36;;;;;;;207.85;160.30;;;;;;;-2.37;100.00;93523.50;5052119;28;20051;-81
2022/02/03 19:01:22;;;;;;;60.28;53.70;;;;;;;-2.43;100.00;93510.50;5052126;28;20044;-80
2022/02/03 19:09:51;;;;;;;32.88;21.92;;;;;;;-2.47;100.00;93536.00;5052025;28;20453;-80
2022/02/03 19:15:27;;;;;;;18.77;12.05;;;;;;;-2.71;100.00;93519.44;5025864;28;20148;-79
2022/02/03 20:02:43;;;;;;;56.40;30.35;;;;;;;-1.32;100.00;93561.22;5041556;28;20408;-77
2022/02/03 20:05:22;;;;;;;68.50;46.47;;;;;;;-1.36;100.00;93553.13;5050767;28;20041;-77
2022/02/03 20:07:56;;;;;;;173.48;132.55;;;;;;;-1.50;100.00;93539.97;5051103;28;20036;-77
2022/02/03 20:10:27;;;;;;;244.70;174.13;;;;;;;-1.52;100.00;93549.34;5051097;28;20049;-77
2022/02/03 20:12:54;;;;;;;210.90;116.38;;;;;;;-1.48;100.00;93562.50;5051160;28;20052;-77
2022/02/03 20:15:24;;;;;;;227.30;139.93;;;;;;;-1.49;100.00;93558.38;5050288;28;20036;-78